Portada
METAR-TAF:

METAR-TAF

Aeroports :

Dharamsala, Índia

latitud: 32-09-54N, longitud: 76-15-48E, altitud: 770 m

Observació

L'informe es va fer fa 1 hora i 7 minuts, a les 04:00 UTC
Vent 3 kt del Sud/Sud-Est
Temperatura 22°C
Humitat 78%
Pressió 1018 hPa
Visibilitat: 6000 m
Escasses núvols a una alçada de 3000 ft
Núvols disperses a una alçada de 4000 ft
Cel ennuvolat a una alçada de 8000 ft

METAR: VIGG 070400Z 15003KT 6000 FEW030 SCT040 BKN080 22/18 Q1018

Hora: 10:37 (05:07 UTC)

Pronòstic

L'informe es va fer fa 6 hores i 7 minuts, a les 23:00 UTC
Pronòstic vàlid del 07 a les 00 UTC al 07 a les 09 UTC
Vent 2 kt amb direcció variable
Visibilitat: 5000 m
Escasses núvols a una alçada de 3000 ft
Núvols disperses a una alçada de 8000 ft
boirina, pluja
Temporalment
l' 07 a les 05 UTC al 07 a les 09 UTC
Escasses núvols a una alçada de 4000 ft, Cumulonimbus.

TAF: VIGG 062300Z 0700/0709 VRB02KT 5000 BR -RA FEW030 SCT080 TEMPO 0705/0709 FEW040CB

Observacions i pronòstics meteorològics de més de 4000 aeroports (METAR i TAF).

Les estacions disponibles són els punts grocs i vermells al mapa.

Posi el ratolí al punt desitjat per veure el nom de l'estació.

Feu clic per veure les observacions i els pronòstics meteorològics.

Per canviar el mapa: feu clic els botons verds amb una creu de color negre per apropar; al botó verd amb un guió per allunyar la imatge; o en les fletxes verdes per a mapes adjacents.


METAR-TAF: